METAR Data
IDs: Format: Raw Decoded Include TAF

Data at: 1420 UTC 27 Nov 2021

LSME 271350Z AUTO 23006KT 190V260 9999NDV FEW025 BKN039 OVC054 03/01 Q0994 RMK